aviador You're here:

KFVE Decoded Metar

FRENCHVILLE in ME, USA
Report Time2018-06-21 11:53:00
UTC Time2018-06-21 12:33:11
Flight Rules vfr VFR
Wind340° at 13 Gusting to 19 kt
W.Decomp.*RWY 32: 10.2 kt HW 8.0 kt RCW
W.Rank340° ranks 6
Current wind is above 340° avg. (9.1)
Visibility9999 m
Phenomena:N/A
Clouds:N/A
Expected CloudBase > 3,600 ft AGL from Temp-Dew spread
CeilingNone
Temp12°C (ISA -1)
Dew Point03°C (54% RH)
AAT5.8°C
QNH1009 hPa
Density Alt1,109 ft
Elevation988 ft
Report Wrong Elevation
Raw Report
KFVE 211153Z AUTO 34013G19KT 10SM CLR 12/03 A2979 RMK AO2 SLP084
70001 T01170028 10117 20072 51017=

Extra information for KFVE:More info

Metar Taf Metar & Taf Last 4 Metars F.Rules Stats Wind Profile Meteogram Temp Stats Airport Information Weather charts Add Link Nearby VenuesMetar ALERT Operation Metar Decoded Social comments

AIRNAV info for KFVE